sensor_id;sensor_type;location;lat;lon;timestamp;pressure;altitude;pressure_sealevel;temperature;humidity
47522;BME280;32291;52.010;4.446;2023-12-22T00:00:11;77773.72;;;-144.67;87.05
47522;BME280;32291;52.010;4.446;2023-12-22T00:01:13;77780.16;;;-144.67;86.01
47522;BME280;32291;52.010;4.446;2023-12-22T00:02:20;77754.47;;;-144.67;85.71
47522;BME280;32291;52.010;4.446;2023-12-22T00:03:28;77780.16;;;-144.67;85.27
47522;BME280;32291;52.010;4.446;2023-12-22T00:04:31;77728.78;;;-144.67;84.67
47522;BME280;32291;52.010;4.446;2023-12-22T00:05:34;77756.59;;;-144.67;84.70
47522;BME280;32291;52.010;4.446;2023-12-22T00:06:37;77739.47;;;-144.67;84.34
47522;BME280;32291;52.010;4.446;2023-12-22T00:07:44;77775.88;;;-144.67;84.42
47522;BME280;32291;52.010;4.446;2023-12-22T00:08:47;77778.00;;;-144.67;84.41
47522;BME280;32291;52.010;4.446;2023-12-22T00:09:54;77765.16;;;-144.67;84.10
47522;BME280;32291;52.010;4.446;2023-12-22T00:10:57;77739.47;;;-144.67;83.80
47522;BME280;32291;52.010;4.446;2023-12-22T00:12:04;77760.88;;;-144.67;83.93
47522;BME280;32291;52.010;4.446;2023-12-22T00:13:12;77778.00;;;-144.67;84.07
47522;BME280;32291;52.010;4.446;2023-12-22T00:14:19;77752.31;;;-144.67;82.95
47522;BME280;32291;52.010;4.446;2023-12-22T00:15:26;77769.44;;;-144.67;83.21
47522;BME280;32291;52.010;4.446;2023-12-22T00:16:29;77778.00;;;-144.67;82.94
47522;BME280;32291;52.010;4.446;2023-12-22T00:17:32;77743.75;;;-144.67;82.40
47522;BME280;32291;52.010;4.446;2023-12-22T00:18:36;77735.19;;;-144.67;82.19
47522;BME280;32291;52.010;4.446;2023-12-22T00:19:38;77733.06;;;-144.67;82.17
47522;BME280;32291;52.010;4.446;2023-12-22T00:20:41;77735.19;;;-144.67;82.26
47522;BME280;32291;52.010;4.446;2023-12-22T00:21:43;77715.94;;;-144.67;82.18
47522;BME280;32291;52.010;4.446;2023-12-22T00:22:50;77713.78;;;-144.67;82.54
47522;BME280;32291;52.010;4.446;2023-12-22T00:23:53;77730.91;;;-144.67;82.34
47522;BME280;32291;52.010;4.446;2023-12-22T00:25:03;77728.78;;;-144.67;81.84
47522;BME280;32291;52.010;4.446;2023-12-22T00:26:06;77705.22;;;-144.67;81.77
47522;BME280;32291;52.010;4.446;2023-12-22T00:27:09;77696.66;;;-144.67;81.42
47522;BME280;32291;52.010;4.446;2023-12-22T00:28:11;77666.69;;;-144.67;80.42
47522;BME280;32291;52.010;4.446;2023-12-22T00:29:13;77745.91;;;-144.67;80.65
47522;BME280;32291;52.010;4.446;2023-12-22T00:30:17;77724.50;;;-144.67;79.24
47522;BME280;32291;52.010;4.446;2023-12-22T00:31:25;77726.63;;;-144.67;78.09
47522;BME280;32291;52.010;4.446;2023-12-22T00:32:32;77690.25;;;-144.67;77.31
47522;BME280;32291;52.010;4.446;2023-12-22T00:33:34;77696.66;;;-144.67;75.93
47522;BME280;32291;52.010;4.446;2023-12-22T00:34:37;77724.50;;;-144.67;74.73
47522;BME280;32291;52.010;4.446;2023-12-22T00:35:44;77696.66;;;-144.67;74.03
47522;BME280;32291;52.010;4.446;2023-12-22T00:36:47;77683.81;;;-144.67;73.68
47522;BME280;32291;52.010;4.446;2023-12-22T00:37:49;77692.38;;;-144.67;73.30
47522;BME280;32291;52.010;4.446;2023-12-22T00:38:52;77709.50;;;-144.67;73.68
47522;BME280;32291;52.010;4.446;2023-12-22T00:40:01;77752.31;;;-144.67;72.45
47522;BME280;32291;52.010;4.446;2023-12-22T00:41:15;77722.34;;;-144.67;73.31
47522;BME280;32291;52.010;4.446;2023-12-22T00:42:18;77739.47;;;-144.67;72.46
47522;BME280;32291;52.010;4.446;2023-12-22T00:43:20;77696.66;;;-144.67;72.20
47522;BME280;32291;52.010;4.446;2023-12-22T00:44:23;77730.91;;;-144.67;71.80
47522;BME280;32291;52.010;4.446;2023-12-22T00:45:29;77743.75;;;-144.67;72.08
47522;BME280;32291;52.010;4.446;2023-12-22T00:46:32;77739.47;;;-144.67;72.08
47522;BME280;32291;52.010;4.446;2023-12-22T00:47:42;77739.47;;;-144.67;72.15
47522;BME280;32291;52.010;4.446;2023-12-22T00:48:45;77780.16;;;-144.67;72.08
47522;BME280;32291;52.010;4.446;2023-12-22T00:49:48;77726.63;;;-144.67;71.73
47522;BME280;32291;52.010;4.446;2023-12-22T00:50:50;77743.75;;;-144.67;72.04
47522;BME280;32291;52.010;4.446;2023-12-22T00:52:01;77726.63;;;-144.67;72.00
47522;BME280;32291;52.010;4.446;2023-12-22T00:53:06;77730.91;;;-144.67;72.23
47522;BME280;32291;52.010;4.446;2023-12-22T00:54:09;77748.03;;;-144.67;72.78
47522;BME280;32291;52.010;4.446;2023-12-22T00:55:11;77748.03;;;-144.67;72.84
47522;BME280;32291;52.010;4.446;2023-12-22T00:56:28;77733.06;;;-144.67;72.91
47522;BME280;32291;52.010;4.446;2023-12-22T00:57:34;77769.44;;;-144.67;72.00
47522;BME280;32291;52.010;4.446;2023-12-22T00:58:37;77739.47;;;-144.67;71.98
47522;BME280;32291;52.010;4.446;2023-12-22T00:59:39;77718.06;;;-144.67;71.71
47522;BME280;32291;52.010;4.446;2023-12-22T01:00:51;77784.44;;;-144.67;71.45
47522;BME280;32291;52.010;4.446;2023-12-22T01:01:57;77756.59;;;-144.67;71.34
47522;BME280;32291;52.010;4.446;2023-12-22T01:03:03;77713.78;;;-144.67;70.62
47522;BME280;32291;52.010;4.446;2023-12-22T01:04:08;77741.63;;;-144.67;70.59
47522;BME280;32291;52.010;4.446;2023-12-22T01:05:16;77754.47;;;-144.67;70.72
47522;BME280;32291;52.010;4.446;2023-12-22T01:06:19;77760.88;;;-144.67;69.87
47522;BME280;32291;52.010;4.446;2023-12-22T01:07:22;77743.75;;;-144.67;69.22
47522;BME280;32291;52.010;4.446;2023-12-22T01:08:27;77735.19;;;-144.67;69.41
47522;BME280;32291;52.010;4.446;2023-12-22T01:09:30;77726.63;;;-144.67;69.60
47522;BME280;32291;52.010;4.446;2023-12-22T01:10:40;77726.63;;;-144.67;69.67
47522;BME280;32291;52.010;4.446;2023-12-22T01:11:43;77730.91;;;-144.67;69.41
47522;BME280;32291;52.010;4.446;2023-12-22T01:12:46;77735.19;;;-144.67;69.38
47522;BME280;32291;52.010;4.446;2023-12-22T01:13:50;77724.50;;;-144.67;68.84
47522;BME280;32291;52.010;4.446;2023-12-22T01:14:57;77730.91;;;-144.67;69.10
47522;BME280;32291;52.010;4.446;2023-12-22T01:16:05;77756.59;;;-144.67;68.84
47522;BME280;32291;52.010;4.446;2023-12-22T01:17:07;77763.03;;;-144.67;69.05
47522;BME280;32291;52.010;4.446;2023-12-22T01:18:14;77737.34;;;-144.67;68.82
47522;BME280;32291;52.010;4.446;2023-12-22T01:19:17;77765.16;;;-144.67;68.95
47522;BME280;32291;52.010;4.446;2023-12-22T01:20:19;77758.75;;;-144.67;68.63
47522;BME280;32291;52.010;4.446;2023-12-22T01:21:37;77752.31;;;-144.67;68.98
47522;BME280;32291;52.010;4.446;2023-12-22T01:22:39;77700.94;;;-144.67;68.60
47522;BME280;32291;52.010;4.446;2023-12-22T01:23:45;77675.25;;;-144.67;68.32
47522;BME280;32291;52.010;4.446;2023-12-22T01:24:48;77692.38;;;-144.67;68.45
47522;BME280;32291;52.010;4.446;2023-12-22T01:25:50;77703.09;;;-144.67;69.69
47522;BME280;32291;52.010;4.446;2023-12-22T01:26:56;77694.53;;;-144.67;69.90
47522;BME280;32291;52.010;4.446;2023-12-22T01:28:00;77696.66;;;-144.67;70.61
47522;BME280;32291;52.010;4.446;2023-12-22T01:29:06;77705.22;;;-144.67;71.40
47522;BME280;32291;52.010;4.446;2023-12-22T01:30:09;77694.53;;;-144.67;70.78
47522;BME280;32291;52.010;4.446;2023-12-22T01:31:13;77700.94;;;-144.67;70.70
47522;BME280;32291;52.010;4.446;2023-12-22T01:32:18;77707.38;;;-144.67;70.10
47522;BME280;32291;52.010;4.446;2023-12-22T01:33:24;77737.34;;;-144.67;68.34
47522;BME280;32291;52.010;4.446;2023-12-22T01:34:28;77778.00;;;-144.67;68.01
47522;BME280;32291;52.010;4.446;2023-12-22T01:35:30;77786.56;;;-144.67;67.59
47522;BME280;32291;52.010;4.446;2023-12-22T01:36:34;77775.88;;;-144.67;67.49
47522;BME280;32291;52.010;4.446;2023-12-22T01:37:44;77758.75;;;-144.67;66.90
47522;BME280;32291;52.010;4.446;2023-12-22T01:38:55;77786.56;;;-144.67;67.14
47522;BME280;32291;52.010;4.446;2023-12-22T01:40:05;77737.34;;;-144.67;66.65
47522;BME280;32291;52.010;4.446;2023-12-22T01:41:10;77756.59;;;-144.67;67.89
47522;BME280;32291;52.010;4.446;2023-12-22T01:42:15;77775.88;;;-144.67;68.48
47522;BME280;32291;52.010;4.446;2023-12-22T01:43:18;77765.16;;;-144.67;68.67
47522;BME280;32291;52.010;4.446;2023-12-22T01:44:25;77743.75;;;-144.67;69.03
47522;BME280;32291;52.010;4.446;2023-12-22T01:45:28;77733.06;;;-144.67;69.22
47522;BME280;32291;52.010;4.446;2023-12-22T01:46:32;77726.63;;;-144.67;69.11
47522;BME280;32291;52.010;4.446;2023-12-22T01:47:38;77720.22;;;-144.67;69.45
47522;BME280;32291;52.010;4.446;2023-12-22T01:48:46;77703.09;;;-144.67;69.45
47522;BME280;32291;52.010;4.446;2023-12-22T01:49:49;77700.94;;;-144.67;69.69
47522;BME280;32291;52.010;4.446;2023-12-22T01:50:56;77700.94;;;-144.67;70.29
47522;BME280;32291;52.010;4.446;2023-12-22T01:52:01;77694.53;;;-144.67;70.32
47522;BME280;32291;52.010;4.446;2023-12-22T01:53:06;77707.38;;;-144.67;70.98
47522;BME280;32291;52.010;4.446;2023-12-22T01:54:10;77709.50;;;-144.67;71.60
47522;BME280;32291;52.010;4.446;2023-12-22T01:55:13;77709.50;;;-144.67;71.95
47522;BME280;32291;52.010;4.446;2023-12-22T01:56:17;77726.63;;;-144.67;72.47
47522;BME280;32291;52.010;4.446;2023-12-22T01:57:20;77722.34;;;-144.67;73.18
47522;BME280;32291;52.010;4.446;2023-12-22T01:58:24;77733.06;;;-144.67;73.81
47522;BME280;32291;52.010;4.446;2023-12-22T01:59:30;77724.50;;;-144.67;74.15
47522;BME280;32291;52.010;4.446;2023-12-22T02:00:36;77718.06;;;-144.67;74.22
47522;BME280;32291;52.010;4.446;2023-12-22T02:01:41;77709.50;;;-144.67;74.40
47522;BME280;32291;52.010;4.446;2023-12-22T02:02:52;77692.38;;;-144.67;73.92
47522;BME280;32291;52.010;4.446;2023-12-22T02:03:56;77724.50;;;-144.67;73.52
47522;BME280;32291;52.010;4.446;2023-12-22T02:05:04;77722.34;;;-144.67;73.35
47522;BME280;32291;52.010;4.446;2023-12-22T02:06:07;77692.38;;;-144.67;73.16
47522;BME280;32291;52.010;4.446;2023-12-22T02:07:10;77675.25;;;-144.67;72.65
47522;BME280;32291;52.010;4.446;2023-12-22T02:08:15;77713.78;;;-144.67;73.45
47522;BME280;32291;52.010;4.446;2023-12-22T02:09:25;77705.22;;;-144.67;73.53
47522;BME280;32291;52.010;4.446;2023-12-22T02:10:27;77705.22;;;-144.67;73.77
47522;BME280;32291;52.010;4.446;2023-12-22T02:11:30;77709.50;;;-144.67;74.27
47522;BME280;32291;52.010;4.446;2023-12-22T02:12:33;77748.03;;;-144.67;74.73
47522;BME280;32291;52.010;4.446;2023-12-22T02:13:35;77735.19;;;-144.67;74.40
47522;BME280;32291;52.010;4.446;2023-12-22T02:14:38;77713.78;;;-144.67;74.02
47522;BME280;32291;52.010;4.446;2023-12-22T02:15:53;77700.94;;;-144.67;73.44
47522;BME280;32291;52.010;4.446;2023-12-22T02:17:26;77700.94;;;-144.67;73.78
47522;BME280;32291;52.010;4.446;2023-12-22T02:18:45;77705.22;;;-144.67;74.33
47522;BME280;32291;52.010;4.446;2023-12-22T02:19:51;77733.06;;;-144.67;74.35
47522;BME280;32291;52.010;4.446;2023-12-22T02:20:57;77713.78;;;-144.67;74.65
47522;BME280;32291;52.010;4.446;2023-12-22T02:22:22;77728.78;;;-144.67;74.66
47522;BME280;32291;52.010;4.446;2023-12-22T02:23:27;77720.22;;;-144.67;74.89
47522;BME280;32291;52.010;4.446;2023-12-22T02:24:31;77715.94;;;-144.67;74.81
47522;BME280;32291;52.010;4.446;2023-12-22T02:25:34;77692.38;;;-144.67;74.37
47522;BME280;32291;52.010;4.446;2023-12-22T02:26:46;77692.38;;;-144.67;74.76
47522;BME280;32291;52.010;4.446;2023-12-22T02:27:58;77703.09;;;-144.67;74.26
47522;BME280;32291;52.010;4.446;2023-12-22T02:29:11;77700.94;;;-144.67;74.51
47522;BME280;32291;52.010;4.446;2023-12-22T02:30:34;77675.25;;;-144.67;73.82
47522;BME280;32291;52.010;4.446;2023-12-22T02:31:44;77679.53;;;-144.67;74.24
47522;BME280;32291;52.010;4.446;2023-12-22T02:33:00;77683.81;;;-144.67;74.76
47522;BME280;32291;52.010;4.446;2023-12-22T02:34:14;77692.38;;;-144.67;75.13
47522;BME280;32291;52.010;4.446;2023-12-22T02:35:24;77681.69;;;-144.67;74.70
47522;BME280;32291;52.010;4.446;2023-12-22T02:36:29;77670.97;;;-144.67;74.68
47522;BME280;32291;52.010;4.446;2023-12-22T02:37:35;77713.78;;;-144.67;75.63
47522;BME280;32291;52.010;4.446;2023-12-22T02:38:40;77696.66;;;-144.67;75.87
47522;BME280;32291;52.010;4.446;2023-12-22T02:39:44;77696.66;;;-144.67;75.80
47522;BME280;32291;52.010;4.446;2023-12-22T02:40:48;77694.53;;;-144.67;75.20
47522;BME280;32291;52.010;4.446;2023-12-22T02:41:51;77703.09;;;-144.67;74.98
47522;BME280;32291;52.010;4.446;2023-12-22T02:42:57;77688.09;;;-144.67;74.63
47522;BME280;32291;52.010;4.446;2023-12-22T02:44:01;77670.97;;;-144.67;74.26
47522;BME280;32291;52.010;4.446;2023-12-22T02:45:13;77705.22;;;-144.67;75.10
47522;BME280;32291;52.010;4.446;2023-12-22T02:46:16;77683.81;;;-144.67;75.29
47522;BME280;32291;52.010;4.446;2023-12-22T02:47:19;77709.50;;;-144.67;75.81
47522;BME280;32291;52.010;4.446;2023-12-22T02:48:30;77696.66;;;-144.67;75.09
47522;BME280;32291;52.010;4.446;2023-12-22T02:49:34;77696.66;;;-144.67;75.40
47522;BME280;32291;52.010;4.446;2023-12-22T02:50:39;77700.94;;;-144.67;75.44
47522;BME280;32291;52.010;4.446;2023-12-22T02:51:42;77705.22;;;-144.67;75.09
47522;BME280;32291;52.010;4.446;2023-12-22T02:52:46;77683.81;;;-144.67;74.52
47522;BME280;32291;52.010;4.446;2023-12-22T02:53:48;77692.38;;;-144.67;74.16
47522;BME280;32291;52.010;4.446;2023-12-22T02:54:50;77705.22;;;-144.67;74.57
47522;BME280;32291;52.010;4.446;2023-12-22T02:55:53;77670.97;;;-144.67;74.03
47522;BME280;32291;52.010;4.446;2023-12-22T02:56:56;77679.53;;;-144.67;73.77
47522;BME280;32291;52.010;4.446;2023-12-22T02:57:59;77698.81;;;-144.67;73.64
47522;BME280;32291;52.010;4.446;2023-12-22T02:59:09;77694.53;;;-144.67;74.04
47522;BME280;32291;52.010;4.446;2023-12-22T03:00:18;77707.38;;;-144.67;74.30
47522;BME280;32291;52.010;4.446;2023-12-22T03:01:22;77709.50;;;-144.67;74.58
47522;BME280;32291;52.010;4.446;2023-12-22T03:02:25;77679.53;;;-144.67;74.12
47522;BME280;32291;52.010;4.446;2023-12-22T03:03:30;77675.25;;;-144.67;73.47
47522;BME280;32291;52.010;4.446;2023-12-22T03:04:55;77700.94;;;-144.67;73.91
47522;BME280;32291;52.010;4.446;2023-12-22T03:06:05;77668.84;;;-144.67;73.66
47522;BME280;32291;52.010;4.446;2023-12-22T03:07:10;77679.53;;;-144.67;72.99
47522;BME280;32291;52.010;4.446;2023-12-22T03:08:12;77688.09;;;-144.67;72.76
47522;BME280;32291;52.010;4.446;2023-12-22T03:09:14;77679.53;;;-144.67;72.16
47522;BME280;32291;52.010;4.446;2023-12-22T03:10:17;77658.13;;;-144.67;72.00
47522;BME280;32291;52.010;4.446;2023-12-22T03:11:23;77675.25;;;-144.67;71.87
47522;BME280;32291;52.010;4.446;2023-12-22T03:12:25;77694.53;;;-144.67;71.74
47522;BME280;32291;52.010;4.446;2023-12-22T03:13:32;77677.41;;;-144.67;71.25
47522;BME280;32291;52.010;4.446;2023-12-22T03:14:36;77679.53;;;-144.67;70.60
47522;BME280;32291;52.010;4.446;2023-12-22T03:15:41;77690.25;;;-144.67;70.31
47522;BME280;32291;52.010;4.446;2023-12-22T03:16:44;77692.38;;;-144.67;69.63
47522;BME280;32291;52.010;4.446;2023-12-22T03:17:48;77692.38;;;-144.67;69.48
47522;BME280;32291;52.010;4.446;2023-12-22T03:18:54;77711.66;;;-144.67;69.04
47522;BME280;32291;52.010;4.446;2023-12-22T03:19:57;77688.09;;;-144.67;68.40
47522;BME280;32291;52.010;4.446;2023-12-22T03:21:03;77703.09;;;-144.67;68.51
47522;BME280;32291;52.010;4.446;2023-12-22T03:22:06;77698.81;;;-144.67;68.27
47522;BME280;32291;52.010;4.446;2023-12-22T03:23:16;77670.97;;;-144.67;67.67
47522;BME280;32291;52.010;4.446;2023-12-22T03:24:19;77692.38;;;-144.67;66.77
47522;BME280;32291;52.010;4.446;2023-12-22T03:25:34;77722.34;;;-144.67;66.27
47522;BME280;32291;52.010;4.446;2023-12-22T03:26:43;77775.88;;;-144.67;65.84
47522;BME280;32291;52.010;4.446;2023-12-22T03:27:51;77707.38;;;-144.67;65.37
47522;BME280;32291;52.010;4.446;2023-12-22T03:28:55;77722.34;;;-144.67;65.64
47522;BME280;32291;52.010;4.446;2023-12-22T03:29:58;77713.78;;;-144.67;65.40
47522;BME280;32291;52.010;4.446;2023-12-22T03:31:04;77696.66;;;-144.67;65.44
47522;BME280;32291;52.010;4.446;2023-12-22T03:32:14;77692.38;;;-144.67;65.35
47522;BME280;32291;52.010;4.446;2023-12-22T03:33:18;77722.34;;;-144.67;65.85
47522;BME280;32291;52.010;4.446;2023-12-22T03:34:22;77720.22;;;-144.67;65.88
47522;BME280;32291;52.010;4.446;2023-12-22T03:35:27;77720.22;;;-144.67;66.10
47522;BME280;32291;52.010;4.446;2023-12-22T03:36:30;77698.81;;;-144.67;66.43
47522;BME280;32291;52.010;4.446;2023-12-22T03:37:33;77705.22;;;-144.67;66.94
47522;BME280;32291;52.010;4.446;2023-12-22T03:38:36;77696.66;;;-144.67;67.14
47522;BME280;32291;52.010;4.446;2023-12-22T03:39:41;77685.97;;;-144.67;66.88
47522;BME280;32291;52.010;4.446;2023-12-22T03:40:47;77675.25;;;-144.67;67.04
47522;BME280;32291;52.010;4.446;2023-12-22T03:41:54;77681.69;;;-144.67;66.77
47522;BME280;32291;52.010;4.446;2023-12-22T03:43:06;77698.81;;;-144.67;67.26
47522;BME280;32291;52.010;4.446;2023-12-22T03:44:16;77690.25;;;-144.67;67.87
47522;BME280;32291;52.010;4.446;2023-12-22T03:45:19;77679.53;;;-144.67;67.58
47522;BME280;32291;52.010;4.446;2023-12-22T03:46:23;77641.00;;;-144.67;67.42
47522;BME280;32291;52.010;4.446;2023-12-22T03:47:26;77628.16;;;-144.67;67.31
47522;BME280;32291;52.010;4.446;2023-12-22T03:48:29;77666.69;;;-144.67;67.63
47522;BME280;32291;52.010;4.446;2023-12-22T03:49:32;77664.56;;;-144.67;67.87
47522;BME280;32291;52.010;4.446;2023-12-22T03:50:34;77677.41;;;-144.67;68.46
47522;BME280;32291;52.010;4.446;2023-12-22T03:51:40;77681.69;;;-144.67;69.08
47522;BME280;32291;52.010;4.446;2023-12-22T03:52:44;77649.56;;;-144.67;69.00
47522;BME280;32291;52.010;4.446;2023-12-22T03:53:53;77649.56;;;-144.67;69.57
47522;BME280;32291;52.010;4.446;2023-12-22T03:54:56;77675.25;;;-144.67;69.96
47522;BME280;32291;52.010;4.446;2023-12-22T03:56:09;77673.13;;;-144.67;70.34
47522;BME280;32291;52.010;4.446;2023-12-22T03:57:15;77675.25;;;-144.67;70.36
47522;BME280;32291;52.010;4.446;2023-12-22T03:58:29;77653.84;;;-144.67;70.41
47522;BME280;32291;52.010;4.446;2023-12-22T03:59:36;77660.28;;;-144.67;70.57
47522;BME280;32291;52.010;4.446;2023-12-22T04:00:42;77656.00;;;-144.67;70.43
47522;BME280;32291;52.010;4.446;2023-12-22T04:01:51;77690.25;;;-144.67;70.93
47522;BME280;32291;52.010;4.446;2023-12-22T04:02:55;77666.69;;;-144.67;71.45
47522;BME280;32291;52.010;4.446;2023-12-22T04:04:08;77628.16;;;-144.67;71.27
47522;BME280;32291;52.010;4.446;2023-12-22T04:05:14;77660.28;;;-144.67;72.08
47522;BME280;32291;52.010;4.446;2023-12-22T04:06:24;77623.88;;;-144.67;71.65
47522;BME280;32291;52.010;4.446;2023-12-22T04:07:30;77641.00;;;-144.67;72.01
47522;BME280;32291;52.010;4.446;2023-12-22T04:08:38;77653.84;;;-144.67;72.80
47522;BME280;32291;52.010;4.446;2023-12-22T04:09:54;77660.28;;;-144.67;72.27
47522;BME280;32291;52.010;4.446;2023-12-22T04:10:57;77658.13;;;-144.67;72.47
47522;BME280;32291;52.010;4.446;2023-12-22T04:12:03;77649.56;;;-144.67;72.13
47522;BME280;32291;52.010;4.446;2023-12-22T04:13:07;77632.44;;;-144.67;71.14
47522;BME280;32291;52.010;4.446;2023-12-22T04:14:13;77636.72;;;-144.67;70.77
47522;BME280;32291;52.010;4.446;2023-12-22T04:15:18;77662.41;;;-144.67;71.26
47522;BME280;32291;52.010;4.446;2023-12-22T04:16:25;77651.72;;;-144.67;71.34
47522;BME280;32291;52.010;4.446;2023-12-22T04:17:45;77641.00;;;-144.67;71.18
47522;BME280;32291;52.010;4.446;2023-12-22T04:18:48;77645.28;;;-144.67;71.55
47522;BME280;32291;52.010;4.446;2023-12-22T04:19:52;77638.88;;;-144.67;71.57
47522;BME280;32291;52.010;4.446;2023-12-22T04:20:58;77630.31;;;-144.67;71.57
47522;BME280;32291;52.010;4.446;2023-12-22T04:22:03;77649.56;;;-144.67;72.81
47522;BME280;32291;52.010;4.446;2023-12-22T04:23:40;77632.44;;;-144.67;72.98
47522;BME280;32291;52.010;4.446;2023-12-22T04:24:45;77619.63;;;-144.67;72.85
47522;BME280;32291;52.010;4.446;2023-12-22T04:25:50;77632.44;;;-144.67;73.53
47522;BME280;32291;52.010;4.446;2023-12-22T04:26:53;77606.75;;;-144.67;74.31
47522;BME280;32291;52.010;4.446;2023-12-22T04:27:56;77649.56;;;-144.67;76.31
47522;BME280;32291;52.010;4.446;2023-12-22T04:29:02;77632.44;;;-144.67;77.44
47522;BME280;32291;52.010;4.446;2023-12-22T04:30:05;77636.72;;;-144.67;77.85
47522;BME280;32291;52.010;4.446;2023-12-22T04:31:09;77630.31;;;-144.67;78.43
47522;BME280;32291;52.010;4.446;2023-12-22T04:32:11;77630.31;;;-144.67;78.72
47522;BME280;32291;52.010;4.446;2023-12-22T04:33:15;77632.44;;;-144.67;79.17
47522;BME280;32291;52.010;4.446;2023-12-22T04:34:21;77634.59;;;-144.67;80.27
47522;BME280;32291;52.010;4.446;2023-12-22T04:35:23;77651.72;;;-144.67;81.38
47522;BME280;32291;52.010;4.446;2023-12-22T04:36:26;77626.03;;;-144.67;81.19
47522;BME280;32291;52.010;4.446;2023-12-22T04:37:29;77600.34;;;-144.67;80.58
47522;BME280;32291;52.010;4.446;2023-12-22T04:38:32;77617.47;;;-144.67;81.23
47522;BME280;32291;52.010;4.446;2023-12-22T04:39:35;77628.16;;;-144.67;82.32
47522;BME280;32291;52.010;4.446;2023-12-22T04:40:43;77628.16;;;-144.67;82.69
47522;BME280;32291;52.010;4.446;2023-12-22T04:41:46;77628.16;;;-144.67;82.93
47522;BME280;32291;52.010;4.446;2023-12-22T04:42:49;77623.88;;;-144.67;82.99
47522;BME280;32291;52.010;4.446;2023-12-22T04:43:52;77632.44;;;-144.67;82.82
47522;BME280;32291;52.010;4.446;2023-12-22T04:44:59;77615.31;;;-144.67;82.46
47522;BME280;32291;52.010;4.446;2023-12-22T04:46:03;77604.63;;;-144.67;82.44
47522;BME280;32291;52.010;4.446;2023-12-22T04:47:06;77611.03;;;-144.67;82.38
47522;BME280;32291;52.010;4.446;2023-12-22T04:48:12;77608.91;;;-144.67;82.79
47522;BME280;32291;52.010;4.446;2023-12-22T04:49:25;77606.75;;;-144.67;82.27
47522;BME280;32291;52.010;4.446;2023-12-22T04:50:35;77611.03;;;-144.67;82.51
47522;BME280;32291;52.010;4.446;2023-12-22T04:51:38;77628.16;;;-144.67;82.46
47522;BME280;32291;52.010;4.446;2023-12-22T04:52:41;77617.47;;;-144.67;81.92
47522;BME280;32291;52.010;4.446;2023-12-22T04:53:44;77606.75;;;-144.67;82.01
47522;BME280;32291;52.010;4.446;2023-12-22T04:54:51;77621.75;;;-144.67;82.18
47522;BME280;32291;52.010;4.446;2023-12-22T04:55:55;77602.50;;;-144.67;81.83
47522;BME280;32291;52.010;4.446;2023-12-22T04:56:57;77606.75;;;-144.67;81.80
47522;BME280;32291;52.010;4.446;2023-12-22T04:58:03;77623.88;;;-144.67;81.91
47522;BME280;32291;52.010;4.446;2023-12-22T04:59:06;77634.59;;;-144.67;82.33
47522;BME280;32291;52.010;4.446;2023-12-22T05:00:09;77628.16;;;-144.67;82.09
47522;BME280;32291;52.010;4.446;2023-12-22T05:01:15;77619.63;;;-144.67;81.78
47522;BME280;32291;52.010;4.446;2023-12-22T05:02:21;77608.91;;;-144.67;81.92
47522;BME280;32291;52.010;4.446;2023-12-22T05:03:24;77641.00;;;-144.67;82.17
47522;BME280;32291;52.010;4.446;2023-12-22T05:04:27;77615.31;;;-144.67;81.64
47522;BME280;32291;52.010;4.446;2023-12-22T05:05:30;77638.88;;;-144.67;82.21
47522;BME280;32291;52.010;4.446;2023-12-22T05:06:36;77636.72;;;-144.67;82.61
47522;BME280;32291;52.010;4.446;2023-12-22T05:07:38;77621.75;;;-144.67;82.17
47522;BME280;32291;52.010;4.446;2023-12-22T05:08:45;77598.19;;;-144.67;81.36
47522;BME280;32291;52.010;4.446;2023-12-22T05:09:49;77615.31;;;-144.67;82.35
47522;BME280;32291;52.010;4.446;2023-12-22T05:10:54;77638.88;;;-144.67;83.25
47522;BME280;32291;52.010;4.446;2023-12-22T05:11:56;77632.44;;;-144.67;83.39
47522;BME280;32291;52.010;4.446;2023-12-22T05:13:05;77645.28;;;-144.67;83.75
47522;BME280;32291;52.010;4.446;2023-12-22T05:14:15;77649.56;;;-144.67;84.24
47522;BME280;32291;52.010;4.446;2023-12-22T05:15:18;77658.13;;;-144.67;84.29
47522;BME280;32291;52.010;4.446;2023-12-22T05:16:21;77683.81;;;-144.67;84.34
47522;BME280;32291;52.010;4.446;2023-12-22T05:17:23;77675.25;;;-144.67;83.72
47522;BME280;32291;52.010;4.446;2023-12-22T05:18:26;77673.13;;;-144.67;82.98
47522;BME280;32291;52.010;4.446;2023-12-22T05:19:44;77636.72;;;-144.67;82.29
47522;BME280;32291;52.010;4.446;2023-12-22T05:20:49;77619.63;;;-144.67;82.17
47522;BME280;32291;52.010;4.446;2023-12-22T05:21:52;77641.00;;;-144.67;82.55
47522;BME280;32291;52.010;4.446;2023-12-22T05:22:58;77641.00;;;-144.67;83.66
47522;BME280;32291;52.010;4.446;2023-12-22T05:24:04;77658.13;;;-144.67;85.18
47522;BME280;32291;52.010;4.446;2023-12-22T05:25:08;77651.72;;;-144.67;85.78
47522;BME280;32291;52.010;4.446;2023-12-22T05:26:22;77688.09;;;-144.67;87.47
47522;BME280;32291;52.010;4.446;2023-12-22T05:27:26;77662.41;;;-144.67;87.12
47522;BME280;32291;52.010;4.446;2023-12-22T05:28:30;77658.13;;;-144.67;87.07
47522;BME280;32291;52.010;4.446;2023-12-22T05:29:34;77630.31;;;-144.67;87.23
47522;BME280;32291;52.010;4.446;2023-12-22T05:30:38;77636.72;;;-144.67;87.03
47522;BME280;32291;52.010;4.446;2023-12-22T05:31:40;77628.16;;;-144.67;86.75
47522;BME280;32291;52.010;4.446;2023-12-22T05:32:44;77638.88;;;-144.67;86.89
47522;BME280;32291;52.010;4.446;2023-12-22T05:33:47;77641.00;;;-144.67;87.01
47522;BME280;32291;52.010;4.446;2023-12-22T05:34:50;77658.13;;;-144.67;87.16
47522;BME280;32291;52.010;4.446;2023-12-22T05:35:53;77664.56;;;-144.67;87.50
47522;BME280;32291;52.010;4.446;2023-12-22T05:36:56;77670.97;;;-144.67;87.56
47522;BME280;32291;52.010;4.446;2023-12-22T05:38:03;77656.00;;;-144.67;87.21
47522;BME280;32291;52.010;4.446;2023-12-22T05:39:06;77645.28;;;-144.67;87.55